sensor_id;sensor_type;location;lat;lon;timestamp;P1;P2;P0
62591;PMS5003;48659;41.622;2.276;2023-04-01T00:00:08;31;28;
62591;PMS5003;48659;41.622;2.276;2023-04-01T00:02:35;23;22;
62591;PMS5003;48659;41.622;2.276;2023-04-01T00:05:03;30;24;
62591;PMS5003;48659;41.622;2.276;2023-04-01T00:07:31;31;25;
62591;PMS5003;48659;41.622;2.276;2023-04-01T00:09:58;28;25;
62591;PMS5003;48659;41.622;2.276;2023-04-01T00:12:25;31;26;
62591;PMS5003;48659;41.622;2.276;2023-04-01T00:14:52;29;26;
62591;PMS5003;48659;41.622;2.276;2023-04-01T00:17:20;32;23;
62591;PMS5003;48659;41.622;2.276;2023-04-01T00:19:48;23;23;
62591;PMS5003;48659;41.622;2.276;2023-04-01T00:22:16;23;22;
62591;PMS5003;48659;41.622;2.276;2023-04-01T00:24:43;29;25;
62591;PMS5003;48659;41.622;2.276;2023-04-01T00:27:11;29;26;
62591;PMS5003;48659;41.622;2.276;2023-04-01T00:29:41;27;24;
62591;PMS5003;48659;41.622;2.276;2023-04-01T00:32:09;26;26;
62591;PMS5003;48659;41.622;2.276;2023-04-01T00:34:36;30;26;
62591;PMS5003;48659;41.622;2.276;2023-04-01T00:37:04;29;25;
62591;PMS5003;48659;41.622;2.276;2023-04-01T00:39:31;27;24;
62591;PMS5003;48659;41.622;2.276;2023-04-01T00:42:04;25;22;
62591;PMS5003;48659;41.622;2.276;2023-04-01T00:44:32;31;26;
62591;PMS5003;48659;41.622;2.276;2023-04-01T00:47:00;32;26;
62591;PMS5003;48659;41.622;2.276;2023-04-01T00:49:29;26;25;
62591;PMS5003;48659;41.622;2.276;2023-04-01T00:51:59;25;23;
62591;PMS5003;48659;41.622;2.276;2023-04-01T00:54:30;27;25;
62591;PMS5003;48659;41.622;2.276;2023-04-01T00:56:59;24;23;
62591;PMS5003;48659;41.622;2.276;2023-04-01T00:59:30;18;18;
62591;PMS5003;48659;41.622;2.276;2023-04-01T01:02:02;25;24;
62591;PMS5003;48659;41.622;2.276;2023-04-01T01:04:32;34;25;
62591;PMS5003;48659;41.622;2.276;2023-04-01T01:07:03;29;25;
62591;PMS5003;48659;41.622;2.276;2023-04-01T01:09:42;25;23;
62591;PMS5003;48659;41.622;2.276;2023-04-01T01:15:45;29;25;
62591;PMS5003;48659;41.622;2.276;2023-04-01T01:18:18;35;28;
62591;PMS5003;48659;41.622;2.276;2023-04-01T01:20:56;26;24;
62591;PMS5003;48659;41.622;2.276;2023-04-01T01:23:43;28;25;
62591;PMS5003;48659;41.622;2.276;2023-04-01T01:26:31;24;24;
62591;PMS5003;48659;41.622;2.276;2023-04-01T01:29:12;29;24;
62591;PMS5003;48659;41.622;2.276;2023-04-01T01:31:56;23;20;
62591;PMS5003;48659;41.622;2.276;2023-04-01T01:34:30;31;28;
62591;PMS5003;48659;41.622;2.276;2023-04-01T01:37:01;21;19;
62591;PMS5003;48659;41.622;2.276;2023-04-01T01:39:32;24;22;
62591;PMS5003;48659;41.622;2.276;2023-04-01T01:42:03;21;19;
62591;PMS5003;48659;41.622;2.276;2023-04-01T01:44:32;30;27;
62591;PMS5003;48659;41.622;2.276;2023-04-01T01:47:02;20;20;
62591;PMS5003;48659;41.622;2.276;2023-04-01T01:49:30;27;23;
62591;PMS5003;48659;41.622;2.276;2023-04-01T01:52:00;25;23;
62591;PMS5003;48659;41.622;2.276;2023-04-01T01:54:27;30;24;
62591;PMS5003;48659;41.622;2.276;2023-04-01T01:56:55;24;22;
62591;PMS5003;48659;41.622;2.276;2023-04-01T01:59:28;28;26;
62591;PMS5003;48659;41.622;2.276;2023-04-01T02:01:56;37;32;
62591;PMS5003;48659;41.622;2.276;2023-04-01T02:04:25;26;24;
62591;PMS5003;48659;41.622;2.276;2023-04-01T02:06:53;33;28;
62591;PMS5003;48659;41.622;2.276;2023-04-01T02:09:26;28;24;
62591;PMS5003;48659;41.622;2.276;2023-04-01T02:11:55;31;29;
62591;PMS5003;48659;41.622;2.276;2023-04-01T02:14:26;29;24;
62591;PMS5003;48659;41.622;2.276;2023-04-01T02:16:59;30;27;
62591;PMS5003;48659;41.622;2.276;2023-04-01T02:19:33;29;27;
62591;PMS5003;48659;41.622;2.276;2023-04-01T02:22:05;28;26;
62591;PMS5003;48659;41.622;2.276;2023-04-01T02:24:35;24;24;
62591;PMS5003;48659;41.622;2.276;2023-04-01T02:27:04;28;24;
62591;PMS5003;48659;41.622;2.276;2023-04-01T02:29:31;31;27;
62591;PMS5003;48659;41.622;2.276;2023-04-01T02:31:59;33;27;
62591;PMS5003;48659;41.622;2.276;2023-04-01T02:34:28;30;27;
62591;PMS5003;48659;41.622;2.276;2023-04-01T02:36:55;27;25;
62591;PMS5003;48659;41.622;2.276;2023-04-01T02:39:24;26;22;
62591;PMS5003;48659;41.622;2.276;2023-04-01T02:41:51;25;23;
62591;PMS5003;48659;41.622;2.276;2023-04-01T02:44:19;34;27;
62591;PMS5003;48659;41.622;2.276;2023-04-01T02:46:47;28;27;
62591;PMS5003;48659;41.622;2.276;2023-04-01T02:49:14;26;25;
62591;PMS5003;48659;41.622;2.276;2023-04-01T02:51:42;29;23;
62591;PMS5003;48659;41.622;2.276;2023-04-01T02:54:09;29;26;
62591;PMS5003;48659;41.622;2.276;2023-04-01T02:56:37;27;25;
62591;PMS5003;48659;41.622;2.276;2023-04-01T02:59:05;31;27;
62591;PMS5003;48659;41.622;2.276;2023-04-01T03:01:32;25;24;
62591;PMS5003;48659;41.622;2.276;2023-04-01T03:03:59;29;26;
62591;PMS5003;48659;41.622;2.276;2023-04-01T03:06:27;24;23;
62591;PMS5003;48659;41.622;2.276;2023-04-01T03:08:54;27;22;
62591;PMS5003;48659;41.622;2.276;2023-04-01T03:11:21;35;31;
62591;PMS5003;48659;41.622;2.276;2023-04-01T03:13:49;30;26;
62591;PMS5003;48659;41.622;2.276;2023-04-01T03:16:15;29;27;
62591;PMS5003;48659;41.622;2.276;2023-04-01T03:18:42;29;27;
62591;PMS5003;48659;41.622;2.276;2023-04-01T03:21:18;24;23;
62591;PMS5003;48659;41.622;2.276;2023-04-01T03:23:46;33;27;
62591;PMS5003;48659;41.622;2.276;2023-04-01T03:26:13;38;28;
62591;PMS5003;48659;41.622;2.276;2023-04-01T03:28:41;29;29;
62591;PMS5003;48659;41.622;2.276;2023-04-01T03:31:09;32;30;
62591;PMS5003;48659;41.622;2.276;2023-04-01T03:33:37;36;28;
62591;PMS5003;48659;41.622;2.276;2023-04-01T03:36:04;34;26;
62591;PMS5003;48659;41.622;2.276;2023-04-01T03:38:32;36;29;
62591;PMS5003;48659;41.622;2.276;2023-04-01T03:41:00;29;26;
62591;PMS5003;48659;41.622;2.276;2023-04-01T03:43:28;30;27;
62591;PMS5003;48659;41.622;2.276;2023-04-01T03:45:56;35;33;
62591;PMS5003;48659;41.622;2.276;2023-04-01T03:48:23;27;25;
62591;PMS5003;48659;41.622;2.276;2023-04-01T03:50:51;36;31;
62591;PMS5003;48659;41.622;2.276;2023-04-01T03:53:19;32;26;
62591;PMS5003;48659;41.622;2.276;2023-04-01T03:55:47;28;28;
62591;PMS5003;48659;41.622;2.276;2023-04-01T03:58:14;31;27;
62591;PMS5003;48659;41.622;2.276;2023-04-01T04:00:41;34;28;
62591;PMS5003;48659;41.622;2.276;2023-04-01T04:03:09;33;27;
62591;PMS5003;48659;41.622;2.276;2023-04-01T04:05:36;34;29;
62591;PMS5003;48659;41.622;2.276;2023-04-01T04:08:04;32;30;
62591;PMS5003;48659;41.622;2.276;2023-04-01T04:10:31;35;32;
62591;PMS5003;48659;41.622;2.276;2023-04-01T04:12:59;34;29;
62591;PMS5003;48659;41.622;2.276;2023-04-01T04:15:26;37;31;
62591;PMS5003;48659;41.622;2.276;2023-04-01T04:17:54;34;30;
62591;PMS5003;48659;41.622;2.276;2023-04-01T04:20:21;33;29;
62591;PMS5003;48659;41.622;2.276;2023-04-01T04:22:48;37;34;
62591;PMS5003;48659;41.622;2.276;2023-04-01T04:25:15;29;28;
62591;PMS5003;48659;41.622;2.276;2023-04-01T04:27:43;27;26;
62591;PMS5003;48659;41.622;2.276;2023-04-01T04:30:11;31;27;
62591;PMS5003;48659;41.622;2.276;2023-04-01T04:32:38;30;27;
62591;PMS5003;48659;41.622;2.276;2023-04-01T04:35:06;29;25;
62591;PMS5003;48659;41.622;2.276;2023-04-01T04:37:33;34;27;
62591;PMS5003;48659;41.622;2.276;2023-04-01T04:40:00;32;29;
62591;PMS5003;48659;41.622;2.276;2023-04-01T04:42:28;29;26;
62591;PMS5003;48659;41.622;2.276;2023-04-01T04:44:55;28;25;
62591;PMS5003;48659;41.622;2.276;2023-04-01T04:47:23;33;28;
62591;PMS5003;48659;41.622;2.276;2023-04-01T04:49:52;29;29;
62591;PMS5003;48659;41.622;2.276;2023-04-01T04:52:19;28;26;
62591;PMS5003;48659;41.622;2.276;2023-04-01T04:54:48;36;29;
62591;PMS5003;48659;41.622;2.276;2023-04-01T04:57:15;29;27;
62591;PMS5003;48659;41.622;2.276;2023-04-01T04:59:42;32;27;
62591;PMS5003;48659;41.622;2.276;2023-04-01T05:02:10;34;31;
62591;PMS5003;48659;41.622;2.276;2023-04-01T05:04:38;37;32;
62591;PMS5003;48659;41.622;2.276;2023-04-01T05:07:05;34;29;
62591;PMS5003;48659;41.622;2.276;2023-04-01T05:09:32;34;29;
62591;PMS5003;48659;41.622;2.276;2023-04-01T05:12:00;31;28;
62591;PMS5003;48659;41.622;2.276;2023-04-01T05:14:27;29;27;
62591;PMS5003;48659;41.622;2.276;2023-04-01T05:16:55;39;33;
62591;PMS5003;48659;41.622;2.276;2023-04-01T05:19:22;27;24;
62591;PMS5003;48659;41.622;2.276;2023-04-01T05:21:50;38;31;
62591;PMS5003;48659;41.622;2.276;2023-04-01T05:24:18;37;31;
62591;PMS5003;48659;41.622;2.276;2023-04-01T05:26:46;29;25;
62591;PMS5003;48659;41.622;2.276;2023-04-01T05:29:13;36;30;
62591;PMS5003;48659;41.622;2.276;2023-04-01T05:31:41;29;26;
62591;PMS5003;48659;41.622;2.276;2023-04-01T05:34:08;37;31;
62591;PMS5003;48659;41.622;2.276;2023-04-01T05:36:36;42;32;
62591;PMS5003;48659;41.622;2.276;2023-04-01T05:39:03;33;28;
62591;PMS5003;48659;41.622;2.276;2023-04-01T05:41:31;33;29;
62591;PMS5003;48659;41.622;2.276;2023-04-01T05:44:01;30;26;
62591;PMS5003;48659;41.622;2.276;2023-04-01T05:46:30;36;31;
62591;PMS5003;48659;41.622;2.276;2023-04-01T05:48:58;27;27;
62591;PMS5003;48659;41.622;2.276;2023-04-01T05:51:26;37;32;
62591;PMS5003;48659;41.622;2.276;2023-04-01T05:53:53;39;36;
62591;PMS5003;48659;41.622;2.276;2023-04-01T05:56:20;32;30;
62591;PMS5003;48659;41.622;2.276;2023-04-01T05:58:50;31;28;
62591;PMS5003;48659;41.622;2.276;2023-04-01T06:01:19;25;25;
62591;PMS5003;48659;41.622;2.276;2023-04-01T06:03:46;33;30;
62591;PMS5003;48659;41.622;2.276;2023-04-01T06:06:15;29;26;
62591;PMS5003;48659;41.622;2.276;2023-04-01T06:08:55;31;27;
62591;PMS5003;48659;41.622;2.276;2023-04-01T06:11:26;34;30;
62591;PMS5003;48659;41.622;2.276;2023-04-01T06:14:07;34;29;
62591;PMS5003;48659;41.622;2.276;2023-04-01T06:16:48;29;28;
62591;PMS5003;48659;41.622;2.276;2023-04-01T06:19:29;34;31;
62591;PMS5003;48659;41.622;2.276;2023-04-01T06:22:10;41;30;
62591;PMS5003;48659;41.622;2.276;2023-04-01T06:25:12;33;27;
62591;PMS5003;48659;41.622;2.276;2023-04-01T06:27:57;28;28;
62591;PMS5003;48659;41.622;2.276;2023-04-01T06:30:35;26;24;
62591;PMS5003;48659;41.622;2.276;2023-04-01T06:33:11;28;19;
62591;PMS5003;48659;41.622;2.276;2023-04-01T06:36:16;22;22;
62591;PMS5003;48659;41.622;2.276;2023-04-01T06:39:01;22;17;
62591;PMS5003;48659;41.622;2.276;2023-04-01T06:42:01;18;16;
62591;PMS5003;48659;41.622;2.276;2023-04-01T06:44:42;24;17;
62591;PMS5003;48659;41.622;2.276;2023-04-01T06:47:22;18;18;
62591;PMS5003;48659;41.622;2.276;2023-04-01T06:50:00;19;17;
62591;PMS5003;48659;41.622;2.276;2023-04-01T06:52:41;23;20;
62591;PMS5003;48659;41.622;2.276;2023-04-01T06:55:30;20;20;
62591;PMS5003;48659;41.622;2.276;2023-04-01T06:58:03;25;20;
62591;PMS5003;48659;41.622;2.276;2023-04-01T07:00:38;21;17;
62591;PMS5003;48659;41.622;2.276;2023-04-01T07:03:13;29;26;
62591;PMS5003;48659;41.622;2.276;2023-04-01T07:05:53;20;19;
62591;PMS5003;48659;41.622;2.276;2023-04-01T07:08:26;28;25;
62591;PMS5003;48659;41.622;2.276;2023-04-01T07:10:56;24;22;
62591;PMS5003;48659;41.622;2.276;2023-04-01T07:13:28;26;20;
62591;PMS5003;48659;41.622;2.276;2023-04-01T07:16:05;24;21;
62591;PMS5003;48659;41.622;2.276;2023-04-01T07:18:41;24;17;
62591;PMS5003;48659;41.622;2.276;2023-04-01T07:21:17;22;19;
62591;PMS5003;48659;41.622;2.276;2023-04-01T07:23:52;21;20;
62591;PMS5003;48659;41.622;2.276;2023-04-01T07:26:24;24;21;
62591;PMS5003;48659;41.622;2.276;2023-04-01T07:28:52;20;19;
62591;PMS5003;48659;41.622;2.276;2023-04-01T07:31:25;23;21;
62591;PMS5003;48659;41.622;2.276;2023-04-01T07:34:05;23;23;
62591;PMS5003;48659;41.622;2.276;2023-04-01T07:36:42;24;20;
62591;PMS5003;48659;41.622;2.276;2023-04-01T07:39:18;26;24;
62591;PMS5003;48659;41.622;2.276;2023-04-01T07:41:57;26;21;
62591;PMS5003;48659;41.622;2.276;2023-04-01T07:44:33;20;19;
62591;PMS5003;48659;41.622;2.276;2023-04-01T07:47:18;20;16;
62591;PMS5003;48659;41.622;2.276;2023-04-01T07:50:02;26;26;
62591;PMS5003;48659;41.622;2.276;2023-04-01T07:52:40;26;25;
62591;PMS5003;48659;41.622;2.276;2023-04-01T07:55:16;23;22;
62591;PMS5003;48659;41.622;2.276;2023-04-01T07:57:51;29;24;
62591;PMS5003;48659;41.622;2.276;2023-04-01T08:00:27;27;23;
62591;PMS5003;48659;41.622;2.276;2023-04-01T08:00:29;27;23;
62591;PMS5003;48659;41.622;2.276;2023-04-01T08:03:10;24;23;
62591;PMS5003;48659;41.622;2.276;2023-04-01T08:05:51;22;21;
62591;PMS5003;48659;41.622;2.276;2023-04-01T08:08:26;20;18;
62591;PMS5003;48659;41.622;2.276;2023-04-01T08:11:06;19;17;
62591;PMS5003;48659;41.622;2.276;2023-04-01T08:13:44;19;17;
62591;PMS5003;48659;41.622;2.276;2023-04-01T08:16:22;26;23;
62591;PMS5003;48659;41.622;2.276;2023-04-01T08:18:59;23;22;
62591;PMS5003;48659;41.622;2.276;2023-04-01T08:21:35;21;18;
62591;PMS5003;48659;41.622;2.276;2023-04-01T08:24:11;28;26;
62591;PMS5003;48659;41.622;2.276;2023-04-01T08:26:48;22;17;
62591;PMS5003;48659;41.622;2.276;2023-04-01T08:29:20;19;19;
62591;PMS5003;48659;41.622;2.276;2023-04-01T08:31:52;20;17;
62591;PMS5003;48659;41.622;2.276;2023-04-01T08:34:26;22;18;
62591;PMS5003;48659;41.622;2.276;2023-04-01T08:37:02;18;16;
62591;PMS5003;48659;41.622;2.276;2023-04-01T08:39:34;28;23;
62591;PMS5003;48659;41.622;2.276;2023-04-01T08:42:08;22;16;
62591;PMS5003;48659;41.622;2.276;2023-04-01T08:44:57;24;23;
62591;PMS5003;48659;41.622;2.276;2023-04-01T08:48:00;21;18;
62591;PMS5003;48659;41.622;2.276;2023-04-01T08:50:51;23;20;
62591;PMS5003;48659;41.622;2.276;2023-04-01T08:53:31;22;20;
62591;PMS5003;48659;41.622;2.276;2023-04-01T08:56:13;18;16;
62591;PMS5003;48659;41.622;2.276;2023-04-01T08:58:49;21;19;
62591;PMS5003;48659;41.622;2.276;2023-04-01T09:01:36;19;18;
62591;PMS5003;48659;41.622;2.276;2023-04-01T09:04:23;26;19;
62591;PMS5003;48659;41.622;2.276;2023-04-01T09:07:02;18;18;
62591;PMS5003;48659;41.622;2.276;2023-04-01T09:09:44;23;20;
62591;PMS5003;48659;41.622;2.276;2023-04-01T09:12:33;22;21;
62591;PMS5003;48659;41.622;2.276;2023-04-01T09:15:20;23;18;
62591;PMS5003;48659;41.622;2.276;2023-04-01T09:18:09;22;20;
62591;PMS5003;48659;41.622;2.276;2023-04-01T09:21:01;25;20;
62591;PMS5003;48659;41.622;2.276;2023-04-01T09:23:45;24;21;
62591;PMS5003;48659;41.622;2.276;2023-04-01T09:26:32;23;21;
62591;PMS5003;48659;41.622;2.276;2023-04-01T09:29:14;23;17;
62591;PMS5003;48659;41.622;2.276;2023-04-01T09:32:04;26;20;
62591;PMS5003;48659;41.622;2.276;2023-04-01T09:34:53;24;21;
62591;PMS5003;48659;41.622;2.276;2023-04-01T09:37:21;19;19;
62591;PMS5003;48659;41.622;2.276;2023-04-01T09:40:08;22;20;
62591;PMS5003;48659;41.622;2.276;2023-04-01T09:42:42;24;19;
62591;PMS5003;48659;41.622;2.276;2023-04-01T09:45:17;21;17;
62591;PMS5003;48659;41.622;2.276;2023-04-01T09:48:05;23;18;
62591;PMS5003;48659;41.622;2.276;2023-04-01T09:50:48;15;15;
62591;PMS5003;48659;41.622;2.276;2023-04-01T09:53:30;24;20;
62591;PMS5003;48659;41.622;2.276;2023-04-01T09:56:24;19;19;
62591;PMS5003;48659;41.622;2.276;2023-04-01T09:59:47;19;18;
62591;PMS5003;48659;41.622;2.276;2023-04-01T10:03:15;24;21;
62591;PMS5003;48659;41.622;2.276;2023-04-01T10:06:12;24;21;
62591;PMS5003;48659;41.622;2.276;2023-04-01T10:08:59;21;18;
62591;PMS5003;48659;41.622;2.276;2023-04-01T10:12:16;24;23;
62591;PMS5003;48659;41.622;2.276;2023-04-01T10:17:20;19;17;
62591;PMS5003;48659;41.622;2.276;2023-04-01T10:20:12;18;17;
62591;PMS5003;48659;41.622;2.276;2023-04-01T10:23:15;21;20;
62591;PMS5003;48659;41.622;2.276;2023-04-01T10:26:00;24;22;
62591;PMS5003;48659;41.622;2.276;2023-04-01T10:28:57;22;18;
62591;PMS5003;48659;41.622;2.276;2023-04-01T10:34:05;24;20;
62591;PMS5003;48659;41.622;2.276;2023-04-01T10:37:30;29;25;
62591;PMS5003;48659;41.622;2.276;2023-04-01T10:40:38;20;20;
62591;PMS5003;48659;41.622;2.276;2023-04-01T10:44:01;22;20;
62591;PMS5003;48659;41.622;2.276;2023-04-01T10:46:54;33;31;
62591;PMS5003;48659;41.622;2.276;2023-04-01T10:49:42;22;19;
62591;PMS5003;48659;41.622;2.276;2023-04-01T10:52:32;25;23;
62591;PMS5003;48659;41.622;2.276;2023-04-01T10:54:57;25;23;
62591;PMS5003;48659;41.622;2.276;2023-04-01T10:57:48;23;20;
62591;PMS5003;48659;41.622;2.276;2023-04-01T11:00:40;24;23;
62591;PMS5003;48659;41.622;2.276;2023-04-01T11:08:02;28;22;
62591;PMS5003;48659;41.622;2.276;2023-04-01T11:10:57;27;25;
62591;PMS5003;48659;41.622;2.276;2023-04-01T11:16:30;24;21;
62591;PMS5003;48659;41.622;2.276;2023-04-01T11:19:20;27;24;
62591;PMS5003;48659;41.622;2.276;2023-04-01T11:23:14;26;19;
62591;PMS5003;48659;41.622;2.276;2023-04-01T11:26:00;32;27;
62591;PMS5003;48659;41.622;2.276;2023-04-01T11:28:44;25;20;
62591;PMS5003;48659;41.622;2.276;2023-04-01T11:31:31;26;24;
62591;PMS5003;48659;41.622;2.276;2023-04-01T11:34:10;24;21;
62591;PMS5003;48659;41.622;2.276;2023-04-01T11:36:48;21;19;
62591;PMS5003;48659;41.622;2.276;2023-04-01T11:39:29;20;19;
62591;PMS5003;48659;41.622;2.276;2023-04-01T11:42:08;26;24;
62591;PMS5003;48659;41.622;2.276;2023-04-01T11:44:46;25;21;
62591;PMS5003;48659;41.622;2.276;2023-04-01T11:47:28;29;26;
62591;PMS5003;48659;41.622;2.276;2023-04-01T11:50:14;29;25;
62591;PMS5003;48659;41.622;2.276;2023-04-01T11:53:00;30;22;
62591;PMS5003;48659;41.622;2.276;2023-04-01T11:55:40;30;26;
62591;PMS5003;48659;41.622;2.276;2023-04-01T11:58:32;24;20;
62591;PMS5003;48659;41.622;2.276;2023-04-01T12:01:25;22;20;
62591;PMS5003;48659;41.622;2.276;2023-04-01T12:05:20;25;23;
62591;PMS5003;48659;41.622;2.276;2023-04-01T12:08:02;22;21;
62591;PMS5003;48659;41.622;2.276;2023-04-01T12:10:39;22;20;
62591;PMS5003;48659;41.622;2.276;2023-04-01T12:13:17;23;19;
62591;PMS5003;48659;41.622;2.276;2023-04-01T12:15:58;21;18;
62591;PMS5003;48659;41.622;2.276;2023-04-01T12:18:36;25;22;
62591;PMS5003;48659;41.622;2.276;2023-04-01T12:21:14;18;18;
62591;PMS5003;48659;41.622;2.276;2023-04-01T12:23:57;23;22;
62591;PMS5003;48659;41.622;2.276;2023-04-01T12:26:58;21;18;
62591;PMS5003;48659;41.622;2.276;2023-04-01T12:29:44;26;23;
62591;PMS5003;48659;41.622;2.276;2023-04-01T12:32:27;22;21;
62591;PMS5003;48659;41.622;2.276;2023-04-01T12:35:08;25;24;
62591;PMS5003;48659;41.622;2.276;2023-04-01T12:37:58;16;15;
62591;PMS5003;48659;41.622;2.276;2023-04-01T12:40:39;17;15;
62591;PMS5003;48659;41.622;2.276;2023-04-01T12:43:34;18;16;
62591;PMS5003;48659;41.622;2.276;2023-04-01T12:46:24;18;17;
62591;PMS5003;48659;41.622;2.276;2023-04-01T12:49:02;17;17;
62591;PMS5003;48659;41.622;2.276;2023-04-01T12:51:58;19;18;
62591;PMS5003;48659;41.622;2.276;2023-04-01T12:54:45;14;14;
62591;PMS5003;48659;41.622;2.276;2023-04-01T12:58:40;16;16;
62591;PMS5003;48659;41.622;2.276;2023-04-01T13:01:03;15;15;
62591;PMS5003;48659;41.622;2.276;2023-04-01T13:05:10;19;17;
62591;PMS5003;48659;41.622;2.276;2023-04-01T13:07:57;17;16;
62591;PMS5003;48659;41.622;2.276;2023-04-01T13:10:38;16;15;
62591;PMS5003;48659;41.622;2.276;2023-04-01T13:13:26;15;15;
62591;PMS5003;48659;41.622;2.276;2023-04-01T13:16:08;21;15;
62591;PMS5003;48659;41.622;2.276;2023-04-01T13:18:43;14;12;
62591;PMS5003;48659;41.622;2.276;2023-04-01T13:21:25;14;14;
62591;PMS5003;48659;41.622;2.276;2023-04-01T13:24:07;21;17;
62591;PMS5003;48659;41.622;2.276;2023-04-01T13:26:46;14;13;
62591;PMS5003;48659;41.622;2.276;2023-04-01T13:29:25;21;18;
62591;PMS5003;48659;41.622;2.276;2023-04-01T13:32:03;21;19;
62591;PMS5003;48659;41.622;2.276;2023-04-01T13:34:48;18;15;
62591;PMS5003;48659;41.622;2.276;2023-04-01T13:37:26;19;17;
62591;PMS5003;48659;41.622;2.276;2023-04-01T13:40:13;16;14;
62591;PMS5003;48659;41.622;2.276;2023-04-01T13:42:57;18;15;
62591;PMS5003;48659;41.622;2.276;2023-04-01T13:45:30;17;14;
62591;PMS5003;48659;41.622;2.276;2023-04-01T13:48:11;12;12;
62591;PMS5003;48659;41.622;2.276;2023-04-01T13:50:58;17;13;
62591;PMS5003;48659;41.622;2.276;2023-04-01T13:54:00;14;14;
62591;PMS5003;48659;41.622;2.276;2023-04-01T13:56:49;16;14;
62591;PMS5003;48659;41.622;2.276;2023-04-01T14:00:32;16;14;
62591;PMS5003;48659;41.622;2.276;2023-04-01T14:04:17;16;11;
62591;PMS5003;48659;41.622;2.276;2023-04-01T14:06:59;11;11;
62591;PMS5003;48659;41.622;2.276;2023-04-01T14:09:43;12;12;
62591;PMS5003;48659;41.622;2.276;2023-04-01T14:12:21;13;13;
62591;PMS5003;48659;41.622;2.276;2023-04-01T14:15:01;15;15;
62591;PMS5003;48659;41.622;2.276;2023-04-01T14:17:46;12;12;
62591;PMS5003;48659;41.622;2.276;2023-04-01T14:20:45;10;10;
62591;PMS5003;48659;41.622;2.276;2023-04-01T14:23:37;15;15;
62591;PMS5003;48659;41.622;2.276;2023-04-01T14:26:18;13;13;
62591;PMS5003;48659;41.622;2.276;2023-04-01T14:28:59;16;10;
62591;PMS5003;48659;41.622;2.276;2023-04-01T14:31:42;11;10;
62591;PMS5003;48659;41.622;2.276;2023-04-01T14:34:22;18;10;
62591;PMS5003;48659;41.622;2.276;2023-04-01T14:37:03;8;8;
62591;PMS5003;48659;41.622;2.276;2023-04-01T14:39:46;10;10;
62591;PMS5003;48659;41.622;2.276;2023-04-01T14:42:29;14;12;
62591;PMS5003;48659;41.622;2.276;2023-04-01T14:45:18;23;19;
62591;PMS5003;48659;41.622;2.276;2023-04-01T14:47:56;14;13;
62591;PMS5003;48659;41.622;2.276;2023-04-01T14:50:40;17;14;
62591;PMS5003;48659;41.622;2.276;2023-04-01T14:53:11;18;15;
62591;PMS5003;48659;41.622;2.276;2023-04-01T14:55:51;18;14;
62591;PMS5003;48659;41.622;2.276;2023-04-01T14:58:21;17;14;
62591;PMS5003;48659;41.622;2.276;2023-04-01T15:00:55;11;11;
62591;PMS5003;48659;41.622;2.276;2023-04-01T15:03:37;15;13;
62591;PMS5003;48659;41.622;2.276;2023-04-01T15:08:25;18;18;
62591;PMS5003;48659;41.622;2.276;2023-04-01T15:11:31;15;15;
62591;PMS5003;48659;41.622;2.276;2023-04-01T15:14:15;15;14;
62591;PMS5003;48659;41.622;2.276;2023-04-01T15:16:55;15;15;
62591;PMS5003;48659;41.622;2.276;2023-04-01T15:19:34;16;16;
62591;PMS5003;48659;41.622;2.276;2023-04-01T15:22:18;18;16;
62591;PMS5003;48659;41.622;2.276;2023-04-01T15:25:05;18;16;
62591;PMS5003;48659;41.622;2.276;2023-04-01T15:27:46;18;15;
62591;PMS5003;48659;41.622;2.276;2023-04-01T15:30:24;16;15;
62591;PMS5003;48659;41.622;2.276;2023-04-01T15:35:11;19;18;
62591;PMS5003;48659;41.622;2.276;2023-04-01T15:37:54;17;16;
62591;PMS5003;48659;41.622;2.276;2023-04-01T15:40:26;17;15;
62591;PMS5003;48659;41.622;2.276;2023-04-01T15:43:02;21;18;
62591;PMS5003;48659;41.622;2.276;2023-04-01T15:45:45;21;17;
62591;PMS5003;48659;41.622;2.276;2023-04-01T15:48:22;23;22;
62591;PMS5003;48659;41.622;2.276;2023-04-01T15:51:02;19;17;
62591;PMS5003;48659;41.622;2.276;2023-04-01T15:53:49;24;22;
62591;PMS5003;48659;41.622;2.276;2023-04-01T15:56:28;22;18;
62591;PMS5003;48659;41.622;2.276;2023-04-01T15:59:14;23;19;
62591;PMS5003;48659;41.622;2.276;2023-04-01T16:01:54;25;20;
62591;PMS5003;48659;41.622;2.276;2023-04-01T16:04:32;17;15;
62591;PMS5003;48659;41.622;2.276;2023-04-01T16:07:23;17;15;
62591;PMS5003;48659;41.622;2.276;2023-04-01T16:10:09;23;17;
62591;PMS5003;48659;41.622;2.276;2023-04-01T16:12:51;23;19;
62591;PMS5003;48659;41.622;2.276;2023-04-01T16:15:31;16;16;
62591;PMS5003;48659;41.622;2.276;2023-04-01T16:18:09;17;17;
62591;PMS5003;48659;41.622;2.276;2023-04-01T16:20:54;25;18;
62591;PMS5003;48659;41.622;2.276;2023-04-01T16:23:29;18;15;
62591;PMS5003;48659;41.622;2.276;2023-04-01T16:26:06;18;13;
62591;PMS5003;48659;41.622;2.276;2023-04-01T16:28:42;19;16;
62591;PMS5003;48659;41.622;2.276;2023-04-01T16:31:25;15;14;
62591;PMS5003;48659;41.622;2.276;2023-04-01T16:34:02;14;13;
62591;PMS5003;48659;41.622;2.276;2023-04-01T16:36:36;15;13;
62591;PMS5003;48659;41.622;2.276;2023-04-01T16:39:18;19;15;
62591;PMS5003;48659;41.622;2.276;2023-04-01T16:41:57;13;13;
62591;PMS5003;48659;41.622;2.276;2023-04-01T16:44:46;17;16;
62591;PMS5003;48659;41.622;2.276;2023-04-01T16:47:27;13;13;
62591;PMS5003;48659;41.622;2.276;2023-04-01T16:50:00;20;16;
62591;PMS5003;48659;41.622;2.276;2023-04-01T16:52:44;16;16;
62591;PMS5003;48659;41.622;2.276;2023-04-01T16:55:21;18;16;
62591;PMS5003;48659;41.622;2.276;2023-04-01T16:57:57;16;16;
62591;PMS5003;48659;41.622;2.276;2023-04-01T17:00:28;18;17;
62591;PMS5003;48659;41.622;2.276;2023-04-01T17:03:04;17;15;
62591;PMS5003;48659;41.622;2.276;2023-04-01T17:05:42;23;15;
62591;PMS5003;48659;41.622;2.276;2023-04-01T17:08:33;16;13;
62591;PMS5003;48659;41.622;2.276;2023-04-01T17:11:08;14;14;
62591;PMS5003;48659;41.622;2.276;2023-04-01T17:13:40;18;15;
62591;PMS5003;48659;41.622;2.276;2023-04-01T17:16:22;16;16;
62591;PMS5003;48659;41.622;2.276;2023-04-01T17:19:04;15;12;
62591;PMS5003;48659;41.622;2.276;2023-04-01T17:21:47;15;15;
62591;PMS5003;48659;41.622;2.276;2023-04-01T17:24:27;18;16;
62591;PMS5003;48659;41.622;2.276;2023-04-01T17:27:06;21;15;
62591;PMS5003;48659;41.622;2.276;2023-04-01T17:29:57;17;17;
62591;PMS5003;48659;41.622;2.276;2023-04-01T17:32:40;16;13;
62591;PMS5003;48659;41.622;2.276;2023-04-01T17:35:21;15;14;
62591;PMS5003;48659;41.622;2.276;2023-04-01T17:37:56;13;13;
62591;PMS5003;48659;41.622;2.276;2023-04-01T17:40:37;16;13;
62591;PMS5003;48659;41.622;2.276;2023-04-01T17:43:18;16;16;
62591;PMS5003;48659;41.622;2.276;2023-04-01T17:45:55;15;14;
62591;PMS5003;48659;41.622;2.276;2023-04-01T17:48:30;16;14;
62591;PMS5003;48659;41.622;2.276;2023-04-01T17:51:11;14;11;